Time;durP1;ratioP1;P1;durP2;ratioP2;P2;SDS_P1;SDS_P2;PMS_P1;PMS_P2;Temp;Humidity;BMP_temperature;BMP_pressure;BME280_temperature;BME280_humidity;BME280_pressure;Samples;Min_cycle;Max_cycle;Signal;HPM_P1;HPM_P2
2022/04/08 00:01:34;;;;;;;;;2.67;2.00;;;;;21.29;44.16;97700.50;110292;1264;19012;-52
2022/04/08 00:04:01;;;;;;;;;4.00;4.00;;;;;21.28;44.11;97694.94;110238;1264;19520;-53
2022/04/08 00:06:28;;;;;;;;;2.00;2.00;;;;;21.27;44.07;97700.79;110321;1265;18444;-51
2022/04/08 00:08:55;;;;;;;;;4.00;2.00;;;;;21.26;44.16;97698.49;110282;1265;18721;-51
2022/04/08 00:11:22;;;;;;;;;2.00;2.00;;;;;21.27;44.06;97687.27;110273;1264;19534;-51
2022/04/08 00:13:52;;;;;;;;;2.67;2.67;;;;;21.26;43.99;97677.85;110259;1264;22967;-51
2022/04/08 00:16:19;;;;;;;;;2.00;2.00;;;;;21.26;44.11;97680.32;110226;1264;18722;-53
2022/04/08 00:18:46;;;;;;;;;2.00;2.00;;;;;21.26;44.05;97679.64;110240;1264;19700;-52
2022/04/08 00:21:14;;;;;;;;;4.00;4.00;;;;;21.27;44.33;97679.70;110301;1264;18463;-52
2022/04/08 00:23:42;;;;;;;;;2.00;2.00;;;;;21.26;44.07;97680.63;110239;1264;19249;-49
2022/04/08 00:26:09;;;;;;;;;4.00;4.00;;;;;21.26;44.01;97679.11;110230;1265;19568;-52
2022/04/08 00:28:36;;;;;;;;;2.00;2.00;;;;;21.27;44.28;97680.71;110270;1264;18479;-54
2022/04/08 00:31:04;;;;;;;;;4.00;4.00;;;;;21.26;44.03;97663.14;110242;1264;18912;-52
2022/04/08 00:33:31;;;;;;;;;2.67;2.67;;;;;21.27;44.04;97673.25;110267;1264;22844;-55
2022/04/08 00:35:59;;;;;;;;;2.00;2.00;;;;;21.26;44.10;97668.97;110207;1265;18605;-58
2022/04/08 00:38:26;;;;;;;;;2.00;2.00;;;;;21.27;43.90;97674.38;110214;1265;22431;-55
2022/04/08 00:40:53;;;;;;;;;2.00;2.00;;;;;21.28;43.81;97682.82;110278;1265;19421;-50
2022/04/08 00:43:21;;;;;;;;;4.00;4.00;;;;;21.27;43.76;97671.30;110262;1264;18499;-52
2022/04/08 00:45:48;;;;;;;;;2.00;2.00;;;;;21.27;43.83;97668.10;110282;1264;18731;-50
2022/04/08 00:48:15;;;;;;;;;4.00;2.00;;;;;21.27;43.92;97676.41;110293;1264;19696;-52
2022/04/08 00:50:42;;;;;;;;;4.00;4.00;;;;;21.26;43.94;97683.04;110292;1264;18915;-50
2022/04/08 00:53:10;;;;;;;;;2.00;2.00;;;;;21.26;43.89;97679.91;110268;1264;18775;-52
2022/04/08 00:55:37;;;;;;;;;5.00;2.00;;;;;21.26;43.90;97678.45;110264;1264;19540;-53
2022/04/08 00:58:04;;;;;;;;;2.00;2.00;;;;;21.25;43.94;97681.11;110240;1264;20279;-52
2022/04/08 01:00:31;;;;;;;;;3.33;2.00;;;;;21.26;43.71;97687.00;110303;1264;19044;-51
2022/04/08 01:03:04;;;;;;;;;4.00;2.67;;;;;21.24;43.98;97686.98;110134;1264;19616;-53
2022/04/08 01:05:31;;;;;;;;;4.00;4.00;;;;;21.25;43.88;97693.86;110233;1264;18472;-50
2022/04/08 01:07:58;;;;;;;;;4.00;4.00;;;;;21.24;43.76;97688.50;110261;1264;18778;-50
2022/04/08 01:10:26;;;;;;;;;2.00;2.00;;;;;21.25;43.70;97692.17;110266;1264;19523;-53
2022/04/08 01:12:53;;;;;;;;;2.00;2.00;;;;;21.25;43.81;97697.55;110260;1264;18814;-50
2022/04/08 01:15:20;;;;;;;;;2.00;2.00;;;;;21.24;43.77;97703.87;110285;1264;18831;-53
2022/04/08 01:17:48;;;;;;;;;2.67;2.67;;;;;21.23;43.80;97698.85;110218;1264;19715;-52
2022/04/08 01:20:15;;;;;;;;;2.00;2.00;;;;;21.23;44.06;97708.52;110225;1265;25178;-54
2022/04/08 01:22:42;;;;;;;;;4.00;2.00;;;;;21.23;43.81;97709.59;110291;1264;20628;-52
2022/04/08 01:25:10;;;;;;;;;2.00;2.00;;;;;21.24;43.68;97709.42;110107;1265;19556;-50
2022/04/08 01:27:37;;;;;;;;;2.00;2.00;;;;;21.23;43.93;97711.59;111302;1265;19956;-52
2022/04/08 01:30:04;;;;;;;;;2.00;2.00;;;;;21.24;43.68;97712.85;110251;1264;18668;-51
2022/04/08 01:32:31;;;;;;;;;3.33;3.33;;;;;21.25;43.76;97708.95;110266;1264;19498;-53
2022/04/08 01:34:59;;;;;;;;;2.00;2.00;;;;;21.25;43.71;97716.02;110114;1264;22854;-53
2022/04/08 01:37:26;;;;;;;;;2.00;2.00;;;;;21.24;43.60;97713.90;110166;1265;19258;-51
2022/04/08 01:39:53;;;;;;;;;2.00;2.00;;;;;21.24;43.47;97713.08;110261;1264;19637;-51
2022/04/08 01:42:24;;;;;;;;;2.67;2.67;;;;;21.23;43.48;97703.95;110304;1264;20403;-52
2022/04/08 01:44:52;;;;;;;;;2.00;2.00;;;;;21.22;43.59;97708.03;110220;1265;20426;-48
2022/04/08 01:47:19;;;;;;;;;2.00;2.00;;;;;21.24;43.59;97716.78;110243;1264;19471;-53
2022/04/08 01:49:46;;;;;;;;;1.00;1.00;;;;;21.23;43.40;97715.98;110261;1264;18449;-53
2022/04/08 01:52:13;;;;;;;;;2.00;2.00;;;;;21.23;43.47;97715.07;110246;1264;21688;-50
2022/04/08 01:54:41;;;;;;;;;2.00;2.00;;;;;21.23;43.56;97711.20;110320;1264;19475;-53
2022/04/08 01:57:08;;;;;;;;;4.00;4.00;;;;;21.22;43.56;97711.30;110250;1264;18490;-53
2022/04/08 01:59:35;;;;;;;;;2.00;2.00;;;;;21.21;43.53;97714.66;110282;1265;18945;-53
2022/04/08 02:02:02;;;;;;;;;2.00;2.00;;;;;21.21;43.52;97709.92;110297;1264;19753;-53
2022/04/08 02:04:30;;;;;;;;;2.00;2.00;;;;;21.21;43.60;97715.91;110278;1264;22198;-54
2022/04/08 02:06:58;;;;;;;;;2.00;2.00;;;;;21.20;43.46;97708.61;110277;1265;18818;-51
2022/04/08 02:09:25;;;;;;;;;2.00;2.00;;;;;21.22;43.56;97707.42;110320;1264;19671;-52
2022/04/08 02:11:52;;;;;;;;;2.00;2.00;;;;;21.20;43.45;97703.71;110297;1264;18433;-53
2022/04/08 02:14:19;;;;;;;;;2.00;2.00;;;;;21.21;43.55;97704.69;110257;1265;21771;-51
2022/04/08 02:16:47;;;;;;;;;2.67;2.00;;;;;21.21;43.33;97703.38;110273;1264;19834;-51
2022/04/08 02:19:14;;;;;;;;;3.33;2.00;;;;;21.20;43.35;97703.65;110256;1264;19921;-51
2022/04/08 02:21:42;;;;;;;;;1.00;1.00;;;;;21.20;43.41;97698.80;110322;1265;21342;-50
2022/04/08 02:24:09;;;;;;;;;2.00;2.00;;;;;21.21;43.67;97706.39;110284;1265;20233;-52
2022/04/08 02:26:36;;;;;;;;;2.00;2.00;;;;;21.19;43.37;97701.84;110239;1264;18576;-53
2022/04/08 02:29:03;;;;;;;;;2.00;2.00;;;;;21.19;43.49;97701.23;110271;1265;20152;-52
2022/04/08 02:31:30;;;;;;;;;2.00;2.00;;;;;21.17;43.68;97700.94;110258;1265;20262;-52
2022/04/08 02:33:58;;;;;;;;;1.33;1.33;;;;;21.17;43.65;97700.95;110250;1264;22200;-53
2022/04/08 02:36:25;;;;;;;;;2.00;2.00;;;;;21.18;43.40;97705.65;110264;1264;22383;-51
2022/04/08 02:38:52;;;;;;;;;1.00;1.00;;;;;21.18;43.38;97708.97;110256;1264;19630;-52
2022/04/08 02:41:19;;;;;;;;;2.00;2.00;;;;;21.17;43.60;97706.97;110280;1265;21846;-52
2022/04/08 02:43:48;;;;;;;;;1.33;1.00;;;;;21.17;43.49;97705.94;110288;1264;18747;-53
2022/04/08 02:46:15;;;;;;;;;3.33;3.33;;;;;21.17;43.48;97707.73;110260;1265;19532;-53
2022/04/08 02:48:43;;;;;;;;;2.00;2.00;;;;;21.17;43.27;97709.27;110282;1264;18414;-52
2022/04/08 02:51:10;;;;;;;;;1.00;1.00;;;;;21.17;43.42;97709.54;110299;1264;18680;-54
2022/04/08 02:53:37;;;;;;;;;2.00;2.00;;;;;21.17;43.42;97707.09;110253;1264;20998;-51
2022/04/08 02:56:04;;;;;;;;;2.00;2.00;;;;;21.17;43.55;97706.21;110253;1264;22108;-52
2022/04/08 02:58:31;;;;;;;;;4.00;4.00;;;;;21.18;43.40;97703.24;110324;1264;22793;-52
2022/04/08 03:00:59;;;;;;;;;2.00;2.00;;;;;21.18;43.35;97704.27;110277;1264;20468;-52
2022/04/08 03:03:27;;;;;;;;;1.67;1.67;;;;;21.16;43.37;97702.34;110293;1264;18614;-51
2022/04/08 03:05:54;;;;;;;;;1.00;1.00;;;;;21.18;43.36;97704.70;110260;1265;18803;-53
2022/04/08 03:08:21;;;;;;;;;2.00;2.00;;;;;21.19;43.43;97712.17;110249;1264;19828;-50
2022/04/08 03:10:48;;;;;;;;;2.00;2.00;;;;;21.18;43.07;97710.05;110263;1264;22670;-50
2022/04/08 03:13:16;;;;;;;;;2.00;2.00;;;;;21.19;43.26;97715.55;110280;1264;19696;-53
2022/04/08 03:15:43;;;;;;;;;2.00;2.00;;;;;21.19;43.28;97718.79;110308;1262;21134;-52
2022/04/08 03:18:10;;;;;;;;;2.00;2.00;;;;;21.18;43.25;97724.27;110280;1264;19024;-50
2022/04/08 03:20:37;;;;;;;;;1.33;1.33;;;;;21.19;43.18;97728.85;110258;1264;20184;-53
2022/04/08 03:23:05;;;;;;;;;2.00;2.00;;;;;21.19;43.26;97726.19;110283;1264;19613;-52
2022/04/08 03:25:32;;;;;;;;;2.00;2.00;;;;;21.18;43.01;97720.84;110257;1264;18687;-51
2022/04/08 03:28:00;;;;;;;;;2.00;2.00;;;;;21.18;43.15;97724.71;110279;1264;21585;-53
2022/04/08 03:30:27;;;;;;;;;2.00;2.00;;;;;21.18;43.20;97726.17;110312;1265;19490;-51
2022/04/08 03:32:55;;;;;;;;;2.00;2.00;;;;;21.19;42.90;97730.27;110256;1264;18835;-52
2022/04/08 03:35:22;;;;;;;;;3.33;2.00;;;;;21.18;43.15;97726.77;110289;1264;18695;-52
2022/04/08 03:37:49;;;;;;;;;1.33;1.33;;;;;21.17;42.98;97720.34;110249;1264;19491;-52
2022/04/08 03:40:17;;;;;;;;;2.00;1.00;;;;;21.17;42.89;97722.73;110134;1264;22859;-53
2022/04/08 03:42:44;;;;;;;;;1.00;1.00;;;;;21.17;43.04;97725.71;110331;1265;18960;-55
2022/04/08 03:45:14;;;;;;;;;1.00;1.00;;;;;21.17;42.97;97726.88;110327;1265;19698;-51
2022/04/08 03:47:43;;;;;;;;;2.00;2.00;;;;;21.18;42.92;97734.06;110303;1264;19042;-54
2022/04/08 03:50:10;;;;;;;;;2.00;2.00;;;;;21.18;43.03;97740.61;110235;1264;18720;-51
2022/04/08 03:52:38;;;;;;;;;2.00;2.00;;;;;21.17;42.99;97739.33;110235;1264;19619;-52
2022/04/08 03:55:05;;;;;;;;;2.00;2.00;;;;;21.17;43.12;97746.27;110204;1264;18429;-52
2022/04/08 03:57:32;;;;;;;;;2.00;2.00;;;;;21.15;43.07;97755.54;110320;1265;22111;-52
2022/04/08 03:59:59;;;;;;;;;4.00;2.00;;;;;21.17;42.97;97753.00;110308;1265;20461;-53
2022/04/08 04:02:27;;;;;;;;;2.00;2.00;;;;;21.16;43.17;97761.60;110273;1264;22842;-53
2022/04/08 04:04:59;;;;;;;;;2.67;2.00;;;;;21.14;43.14;97756.02;110276;1264;22839;-54
2022/04/08 04:07:26;;;;;;;;;1.00;1.00;;;;;21.16;43.15;97768.46;110202;1264;19621;-55
2022/04/08 04:09:53;;;;;;;;;1.00;1.00;;;;;21.16;43.02;97766.13;110251;1264;18447;-55
2022/04/08 04:12:21;;;;;;;;;1.33;1.33;;;;;21.16;42.93;97772.39;110303;1264;20348;-50
2022/04/08 04:14:48;;;;;;;;;1.00;1.00;;;;;21.16;42.91;97765.91;110272;1264;19533;-52
2022/04/08 04:17:15;;;;;;;;;2.00;2.00;;;;;21.16;42.87;97772.98;110276;1264;18539;-51
2022/04/08 04:19:42;;;;;;;;;1.67;1.67;;;;;21.17;42.91;97772.83;110286;1264;18815;-52
2022/04/08 04:22:09;;;;;;;;;2.00;2.00;;;;;21.16;43.04;97781.63;110287;1264;20106;-54
2022/04/08 04:24:37;;;;;;;;;2.00;2.00;;;;;21.16;42.97;97785.77;110305;1264;18458;-52
2022/04/08 04:27:04;;;;;;;;;2.00;2.00;;;;;21.15;42.93;97791.32;110260;1264;18801;-53
2022/04/08 04:29:31;;;;;;;;;6.00;3.33;;;;;21.15;42.92;97794.21;110256;1264;19768;-54
2022/04/08 04:31:59;;;;;;;;;2.00;1.50;;;;;21.16;43.02;97800.64;110264;1264;18554;-53
2022/04/08 04:34:27;;;;;;;;;2.00;2.00;;;;;21.16;42.78;97811.98;110288;1264;19981;-52
2022/04/08 04:36:54;;;;;;;;;2.67;2.00;;;;;21.15;42.79;97820.77;110257;1264;19599;-55
2022/04/08 04:39:21;;;;;;;;;4.00;4.00;;;;;21.17;42.91;97817.92;110302;1264;18756;-52
2022/04/08 04:41:48;;;;;;;;;2.00;2.00;;;;;21.17;42.91;97830.12;110299;1264;18870;-51
2022/04/08 04:44:15;;;;;;;;;2.00;1.50;;;;;21.17;42.85;97836.45;110277;1264;22363;-51
2022/04/08 04:46:43;;;;;;;;;3.33;2.00;;;;;21.15;43.08;97843.98;110262;1264;19020;-52
2022/04/08 04:49:11;;;;;;;;;2.00;2.00;;;;;21.16;42.97;97857.67;110272;1264;18661;-52
2022/04/08 04:51:38;;;;;;;;;1.00;1.00;;;;;21.17;42.90;97861.50;110297;1264;19552;-54
2022/04/08 04:54:05;;;;;;;;;1.00;1.00;;;;;21.15;42.81;97867.36;110227;1265;20315;-54
2022/04/08 04:56:32;;;;;;;;;1.67;1.67;;;;;21.15;42.82;97873.56;110114;1265;18847;-52
2022/04/08 04:58:59;;;;;;;;;4.00;2.00;;;;;21.16;42.92;97882.63;110134;1265;19852;-52
2022/04/08 05:01:27;;;;;;;;;2.00;2.00;;;;;21.15;42.71;97886.09;110247;1264;18597;-51
2022/04/08 05:03:54;;;;;;;;;2.00;2.00;;;;;21.16;42.77;97893.77;110252;1264;18810;-55
2022/04/08 05:06:21;;;;;;;;;2.00;2.00;;;;;21.17;42.85;97899.04;110298;1265;21708;-51
2022/04/08 05:08:48;;;;;;;;;2.00;2.00;;;;;21.17;42.85;97898.96;110226;1264;18612;-53
2022/04/08 05:11:16;;;;;;;;;4.67;3.33;;;;;21.18;42.85;97902.74;110268;1265;18803;-53
2022/04/08 05:13:44;;;;;;;;;2.00;2.00;;;;;21.18;42.79;97902.96;110227;1265;19680;-51
2022/04/08 05:16:11;;;;;;;;;2.00;2.00;;;;;21.18;42.71;97908.25;110233;1264;19034;-50
2022/04/08 05:18:39;;;;;;;;;1.67;1.67;;;;;21.17;42.73;97910.81;110294;1264;19035;-54
2022/04/08 05:21:06;;;;;;;;;2.00;2.00;;;;;21.20;42.78;97916.57;110252;1264;19623;-54
2022/04/08 05:23:33;;;;;;;;;2.00;2.00;;;;;21.19;42.93;97924.51;110257;1265;18455;-51
2022/04/08 05:26:01;;;;;;;;;2.00;2.00;;;;;21.22;42.96;97928.86;110236;1264;22322;-52
2022/04/08 05:28:28;;;;;;;;;2.00;2.00;;;;;21.24;43.06;97935.59;110203;1265;22858;-53
2022/04/08 05:30:55;;;;;;;;;2.00;2.00;;;;;21.27;43.48;97940.42;110181;1264;18457;-52
2022/04/08 05:33:23;;;;;;;;;1.00;1.00;;;;;21.29;44.31;97952.36;110203;1265;20309;-47
2022/04/08 05:35:50;;;;;;;;;2.00;2.00;;;;;21.27;44.29;97964.90;110170;1264;19425;-55
2022/04/08 05:38:17;;;;;;;;;2.00;2.00;;;;;21.22;44.58;97962.14;110244;1264;18447;-53
2022/04/08 05:40:45;;;;;;;;;3.33;2.00;;;;;21.16;43.80;97966.61;110227;1264;18675;-54
2022/04/08 05:43:12;;;;;;;;;2.00;2.00;;;;;21.09;43.34;97972.48;110215;1264;19926;-53
2022/04/08 05:45:39;;;;;;;;;4.00;4.00;;;;;21.02;42.81;97977.98;110244;1264;18560;-54
2022/04/08 05:48:06;;;;;;;;;2.00;2.00;;;;;21.00;42.66;97991.11;110169;1264;20579;-53
2022/04/08 05:50:34;;;;;;;;;4.00;4.00;;;;;20.97;42.38;97995.40;110238;1264;19677;-51
2022/04/08 05:53:01;;;;;;;;;2.00;2.00;;;;;20.94;42.19;98003.80;110215;1264;18463;-51
2022/04/08 05:55:28;;;;;;;;;4.00;2.00;;;;;20.93;42.30;98009.11;110196;1265;18795;-52
2022/04/08 05:57:56;;;;;;;;;4.00;4.00;;;;;20.91;41.90;98008.64;110268;1264;19483;-54
2022/04/08 06:00:24;;;;;;;;;2.00;2.00;;;;;20.87;41.28;98010.00;110263;1264;18587;-53
2022/04/08 06:02:53;;;;;;;;;4.00;4.00;;;;;20.88;41.91;98016.93;110222;1265;18956;-53
2022/04/08 06:05:20;;;;;;;;;4.00;4.00;;;;;20.97;41.79;98025.33;110213;1264;19494;-54
2022/04/08 06:07:48;;;;;;;;;4.00;4.00;;;;;21.03;41.81;98034.09;110245;1264;18581;-56
2022/04/08 06:10:18;;;;;;;;;4.00;4.00;;;;;21.11;41.69;98039.34;110269;1264;18981;-55
2022/04/08 06:12:45;;;;;;;;;4.00;4.00;;;;;21.15;41.72;98038.86;110295;1265;19816;-54
2022/04/08 06:15:13;;;;;;;;;3.33;2.67;;;;;21.19;41.82;98046.58;110185;1264;18874;-54
2022/04/08 06:17:40;;;;;;;;;4.00;2.00;;;;;21.24;41.98;98046.33;109936;1265;162233;-53
2022/04/08 06:20:07;;;;;;;;;3.33;3.33;;;;;21.27;41.98;98047.88;110213;1264;22323;-53
2022/04/08 06:22:34;;;;;;;;;2.00;2.00;;;;;21.31;42.13;98057.73;110159;1264;22255;-54
2022/04/08 06:25:02;;;;;;;;;2.00;2.00;;;;;21.32;42.18;98068.58;110195;1265;19019;-56
2022/04/08 06:27:29;;;;;;;;;4.00;3.00;;;;;21.32;42.34;98073.53;110278;1264;19491;-53
2022/04/08 06:29:56;;;;;;;;;3.67;2.00;;;;;21.33;42.35;98077.98;110121;1265;20496;-58
2022/04/08 06:32:24;;;;;;;;;2.00;2.00;;;;;21.34;42.64;98081.73;110215;1264;18723;-53
2022/04/08 06:34:51;;;;;;;;;1.33;1.33;;;;;21.32;42.49;98089.83;110240;1264;19474;-55
2022/04/08 06:37:18;;;;;;;;;2.00;2.00;;;;;21.33;42.50;98088.85;110143;1264;18370;-55
2022/04/08 06:39:47;;;;;;;;;2.00;2.00;;;;;21.32;42.88;98099.05;110116;1264;22573;-53
2022/04/08 06:42:14;;;;;;;;;2.00;2.00;;;;;21.29;43.12;98105.14;110257;1264;19634;-54
2022/04/08 06:44:42;;;;;;;;;4.00;4.00;;;;;21.28;43.05;98105.73;110278;1265;18459;-54
2022/04/08 06:47:09;;;;;;;;;2.67;2.00;;;;;21.29;43.28;98122.27;110257;1264;18828;-51
2022/04/08 06:49:38;;;;;;;;;2.00;2.00;;;;;21.28;43.69;98137.67;110241;1264;19432;-53
2022/04/08 06:52:05;;;;;;;;;4.00;4.00;;;;;21.30;43.86;98146.17;110178;1265;18615;-53
2022/04/08 06:54:33;;;;;;;;;2.00;2.00;;;;;21.29;44.22;98160.77;110234;1264;21587;-53
2022/04/08 06:57:00;;;;;;;;;4.00;4.00;;;;;21.33;45.51;98172.13;110268;1264;21215;-51
2022/04/08 06:59:27;;;;;;;;;4.00;4.00;;;;;21.37;45.95;98186.14;110205;1264;22354;-52
2022/04/08 07:01:54;;;;;;;;;5.33;5.33;;;;;21.37;46.15;98198.08;110289;1264;18850;-54
2022/04/08 07:04:22;;;;;;;;;6.00;4.00;;;;;21.39;46.25;98205.70;110236;1264;19819;-51
2022/04/08 07:06:49;;;;;;;;;5.00;5.00;;;;;21.43;46.14;98214.77;110249;1264;22839;-52
2022/04/08 07:09:16;;;;;;;;;4.67;4.67;;;;;21.44;46.41;98226.52;110226;1264;21240;-51
2022/04/08 07:11:44;;;;;;;;;6.67;6.00;;;;;21.42;46.24;98232.30;110173;1264;23949;-59
2022/04/08 07:14:11;;;;;;;;;4.00;4.00;;;;;21.43;46.51;98238.68;110215;1265;19678;-49
2022/04/08 07:16:38;;;;;;;;;7.00;6.00;;;;;21.43;46.41;98251.34;110217;1264;20996;-53
2022/04/08 07:19:06;;;;;;;;;5.00;5.00;;;;;21.42;46.36;98252.47;110252;1264;19492;-50
2022/04/08 07:21:33;;;;;;;;;6.00;6.00;;;;;21.44;46.39;98258.87;110285;1264;19068;-55
2022/04/08 07:24:00;;;;;;;;;5.33;5.33;;;;;21.43;46.33;98259.83;110180;1264;19148;-54
2022/04/08 07:26:28;;;;;;;;;6.00;5.33;;;;;21.45;46.31;98265.81;110119;1264;20169;-53
2022/04/08 07:28:56;;;;;;;;;8.00;6.67;;;;;21.52;46.12;98270.44;110130;1264;18782;-52
2022/04/08 07:31:23;;;;;;;;;6.67;6.00;;;;;21.57;45.87;98268.62;110243;1264;18740;-51
2022/04/08 07:33:50;;;;;;;;;6.67;5.67;;;;;21.61;45.51;98272.19;110289;1264;19885;-53
2022/04/08 07:36:18;;;;;;;;;7.33;6.67;;;;;21.64;45.41;98267.39;110291;1264;21321;-52
2022/04/08 07:38:45;;;;;;;;;6.00;6.00;;;;;21.68;45.10;98277.79;110248;1264;18886;-52
2022/04/08 07:41:13;;;;;;;;;5.00;5.00;;;;;21.76;45.05;98285.47;110220;1264;19552;-52
2022/04/08 07:43:40;;;;;;;;;5.00;5.00;;;;;21.78;44.68;98291.98;110226;1264;18645;-55
2022/04/08 07:46:07;;;;;;;;;7.00;6.00;;;;;21.79;44.66;98301.71;110074;1264;20173;-53
2022/04/08 07:48:34;;;;;;;;;6.00;6.00;;;;;21.77;44.65;98305.02;110249;1264;19490;-54
2022/04/08 07:51:01;;;;;;;;;8.00;6.00;;;;;21.78;44.62;98314.08;109968;1264;18486;-54
2022/04/08 07:53:29;;;;;;;;;6.00;6.00;;;;;21.82;44.47;98320.27;110226;1264;20770;-53
2022/04/08 07:55:56;;;;;;;;;5.00;5.00;;;;;21.87;44.28;98325.54;110177;1264;19488;-54
2022/04/08 07:58:23;;;;;;;;;6.00;6.00;;;;;21.84;44.14;98328.27;110165;1264;22369;-55
2022/04/08 08:00:53;;;;;;;;;6.00;6.00;;;;;21.79;44.23;98334.77;110252;1264;18883;-52
2022/04/08 08:03:20;;;;;;;;;6.67;6.00;;;;;21.72;44.36;98336.75;110261;1265;19563;-53
2022/04/08 08:05:51;;;;;;;;;6.00;6.00;;;;;21.71;44.27;98349.09;110218;1264;32308;-54
2022/04/08 08:08:19;;;;;;;;;8.00;6.00;;;;;21.65;44.46;98347.05;110119;1265;18872;-52
2022/04/08 08:10:46;;;;;;;;;6.00;5.67;;;;;21.60;44.53;98350.08;110154;1264;19753;-53
2022/04/08 08:13:13;;;;;;;;;8.00;6.00;;;;;21.57;44.41;98357.67;110169;1265;19966;-54
2022/04/08 08:15:41;;;;;;;;;5.00;5.00;;;;;21.55;44.58;98363.05;110181;1266;19318;-51
2022/04/08 08:18:08;;;;;;;;;6.00;5.00;;;;;21.53;44.41;98367.05;110016;1267;19553;-52
2022/04/08 08:20:36;;;;;;;;;7.33;6.00;;;;;21.50;44.69;98368.12;110167;1264;18418;-53
2022/04/08 08:23:04;;;;;;;;;5.00;5.00;;;;;21.55;44.57;98376.96;109985;1265;19100;-53
2022/04/08 08:25:31;;;;;;;;;6.00;6.00;;;;;21.53;44.66;98380.95;110112;1264;19768;-51
2022/04/08 08:28:00;;;;;;;;;5.00;5.00;;;;;21.52;44.45;98392.45;110088;1264;18611;-54
2022/04/08 08:30:29;;;;;;;;;6.00;6.00;;;;;21.47;44.72;98392.91;110261;1264;18623;-50
2022/04/08 08:32:56;;;;;;;;;6.00;6.00;;;;;21.44;44.81;98397.63;110201;1264;20214;-51
2022/04/08 08:35:25;;;;;;;;;6.67;6.00;;;;;21.44;44.68;98400.35;110230;1264;18646;-55
2022/04/08 08:37:52;;;;;;;;;5.33;5.33;;;;;21.44;44.72;98406.13;110203;1264;19024;-53
2022/04/08 08:40:19;;;;;;;;;5.00;5.00;;;;;21.44;44.88;98405.36;110221;1264;21737;-50
2022/04/08 08:42:47;;;;;;;;;6.00;6.00;;;;;21.42;44.57;98413.98;110275;1265;18418;-52
2022/04/08 08:45:15;;;;;;;;;5.67;5.00;;;;;21.42;44.66;98422.92;110255;1264;18734;-52
2022/04/08 08:47:42;;;;;;;;;5.00;5.00;;;;;21.40;44.73;98429.48;110235;1264;19793;-51
2022/04/08 08:50:09;;;;;;;;;6.00;5.00;;;;;21.40;44.97;98436.44;110215;1264;22772;-52
2022/04/08 08:52:36;;;;;;;;;6.00;5.50;;;;;21.37;44.71;98441.27;110244;1265;22871;-50
2022/04/08 08:55:04;;;;;;;;;5.00;5.00;;;;;21.37;44.78;98446.02;110218;1264;20304;-53
2022/04/08 08:57:31;;;;;;;;;6.00;5.00;;;;;21.34;44.76;98449.54;110270;1265;18449;-52
2022/04/08 08:59:58;;;;;;;;;8.00;6.00;;;;;21.33;44.93;98449.80;110188;1264;24053;-55
2022/04/08 09:02:25;;;;;;;;;6.00;6.00;;;;;21.35;44.70;98456.48;110191;1264;19510;-52
2022/04/08 09:04:53;;;;;;;;;5.67;5.67;;;;;21.35;44.67;98457.70;110060;1264;18600;-49
2022/04/08 09:07:20;;;;;;;;;5.67;5.00;;;;;21.34;44.70;98462.45;110073;1264;18715;-54
2022/04/08 09:09:47;;;;;;;;;5.00;5.00;;;;;21.35;44.84;98467.49;110079;1264;19510;-52
2022/04/08 09:12:14;;;;;;;;;6.00;5.33;;;;;21.36;44.63;98474.48;110156;1264;18474;-51
2022/04/08 09:14:42;;;;;;;;;5.67;5.67;;;;;21.36;44.60;98477.00;110305;1264;18817;-52
2022/04/08 09:17:09;;;;;;;;;5.00;5.00;;;;;21.43;44.66;98483.39;110154;1264;19386;-57
2022/04/08 09:19:36;;;;;;;;;5.33;4.67;;;;;21.46;44.75;98493.52;110242;1264;23948;-54
2022/04/08 09:22:03;;;;;;;;;6.00;6.00;;;;;21.42;45.05;98499.92;110234;1264;18837;-48
2022/04/08 09:24:30;;;;;;;;;4.00;4.00;;;;;21.37;44.13;98505.36;110233;1265;19774;-52
2022/04/08 09:26:58;;;;;;;;;4.00;4.00;;;;;21.24;43.14;98517.59;110253;1264;20473;-55
2022/04/08 09:29:27;;;;;;;;;5.00;5.00;;;;;21.19;43.05;98518.33;110206;1264;18920;-55
2022/04/08 09:31:54;;;;;;;;;6.67;4.67;;;;;21.13;41.74;98522.15;110170;1264;20779;-53
2022/04/08 09:34:22;;;;;;;;;4.67;4.67;;;;;21.06;41.41;98526.08;110085;1265;18479;-50
2022/04/08 09:36:50;;;;;;;;;5.00;5.00;;;;;21.06;41.36;98527.86;110096;1264;18911;-52
2022/04/08 09:39:17;;;;;;;;;4.00;4.00;;;;;21.03;40.59;98533.35;110029;1264;19616;-54
2022/04/08 09:41:44;;;;;;;;;4.00;4.00;;;;;21.01;40.22;98534.10;110232;1264;22396;-54
2022/04/08 09:44:11;;;;;;;;;5.00;4.00;;;;;20.99;39.33;98534.33;110231;1264;19443;-54
2022/04/08 09:46:39;;;;;;;;;5.00;5.00;;;;;20.97;38.94;98533.98;110118;1264;22036;-53
2022/04/08 09:49:06;;;;;;;;;4.00;4.00;;;;;20.93;38.73;98543.08;110228;1264;18766;-50
2022/04/08 09:51:33;;;;;;;;;4.00;4.00;;;;;20.91;38.08;98541.89;110247;1265;19771;-52
2022/04/08 09:54:02;;;;;;;;;2.67;2.67;;;;;20.89;37.78;98547.13;110247;1264;19468;-51
2022/04/08 09:56:29;;;;;;;;;5.00;2.00;;;;;20.90;37.47;98554.70;110085;1267;18516;-50
2022/04/08 09:58:57;;;;;;;;;3.33;3.33;;;;;20.90;37.40;98554.70;110233;1265;18993;-50
2022/04/08 10:01:25;;;;;;;;;2.67;2.67;;;;;20.89;37.10;98560.08;110113;1265;19485;-53
2022/04/08 10:03:53;;;;;;;;;3.33;3.33;;;;;20.87;37.03;98555.86;110147;1264;20145;-53
2022/04/08 10:06:21;;;;;;;;;4.00;4.00;;;;;20.85;37.07;98558.40;110162;1264;18878;-51
2022/04/08 10:08:48;;;;;;;;;3.50;3.00;;;;;20.88;37.66;98555.69;110109;1265;19464;-47
2022/04/08 10:11:16;;;;;;;;;2.00;2.00;;;;;20.92;38.05;98550.35;110210;1265;18414;-52
2022/04/08 10:13:43;;;;;;;;;5.00;5.00;;;;;20.99;38.67;98550.49;110230;1265;19189;-52
2022/04/08 10:16:10;;;;;;;;;4.00;3.33;;;;;21.13;40.41;98559.95;110221;1264;19512;-53
2022/04/08 10:18:38;;;;;;;;;4.33;4.33;;;;;21.09;39.40;98562.75;110277;1264;22849;-51
2022/04/08 10:21:05;;;;;;;;;4.00;4.00;;;;;21.07;39.40;98564.84;110204;1265;19024;-52
2022/04/08 10:23:32;;;;;;;;;4.00;3.33;;;;;21.05;38.81;98572.70;110229;1265;20490;-51
2022/04/08 10:25:59;;;;;;;;;3.33;3.33;;;;;21.00;38.58;98564.15;110209;1264;20321;-53
2022/04/08 10:28:26;;;;;;;;;2.00;2.00;;;;;21.02;38.76;98566.34;110166;1264;18766;-52
2022/04/08 10:30:54;;;;;;;;;4.00;2.00;;;;;21.05;38.60;98564.55;110223;1264;20328;-51
2022/04/08 10:33:21;;;;;;;;;4.00;2.67;;;;;21.06;38.96;98566.33;110178;1264;18446;-53
2022/04/08 10:35:48;;;;;;;;;3.00;3.00;;;;;21.08;38.87;98573.67;110184;1264;18824;-52
2022/04/08 10:38:15;;;;;;;;;2.00;2.00;;;;;21.11;38.92;98578.88;110235;1264;20216;-52
2022/04/08 10:40:46;;;;;;;;;2.00;2.00;;;;;21.13;39.45;98584.84;110244;1264;23066;-56
2022/04/08 10:43:14;;;;;;;;;5.00;2.67;;;;;21.14;39.13;98588.20;110170;1265;19118;-51
2022/04/08 10:45:41;;;;;;;;;4.67;4.00;;;;;21.15;39.23;98593.02;110235;1263;19469;-52
2022/04/08 10:48:08;;;;;;;;;4.00;2.00;;;;;21.13;39.67;98591.03;110128;1265;22440;-52
2022/04/08 10:50:35;;;;;;;;;4.00;4.00;;;;;21.17;39.51;98595.48;110145;1264;18824;-52
2022/04/08 10:53:03;;;;;;;;;4.00;4.00;;;;;21.22;39.86;98595.06;110039;1264;20866;-54
2022/04/08 10:55:30;;;;;;;;;4.00;4.00;;;;;21.23;40.28;98593.04;110179;1265;18372;-54
2022/04/08 10:57:57;;;;;;;;;2.00;2.00;;;;;21.25;40.28;98592.59;110182;1264;18664;-50
2022/04/08 11:00:25;;;;;;;;;2.00;2.00;;;;;21.26;40.44;98586.83;110104;1264;22856;-52
2022/04/08 11:02:52;;;;;;;;;2.00;2.00;;;;;21.27;40.37;98586.64;110187;1264;18757;-51
2022/04/08 11:05:20;;;;;;;;;2.00;2.00;;;;;21.32;40.92;98586.27;110158;1264;22714;-52
2022/04/08 11:07:48;;;;;;;;;2.00;2.00;;;;;21.38;41.35;98587.73;110235;1264;19490;-57
2022/04/08 11:10:15;;;;;;;;;4.00;4.00;;;;;21.38;41.72;98589.36;110145;1264;22913;-52
2022/04/08 11:12:43;;;;;;;;;4.00;4.00;;;;;21.37;41.63;98592.94;110269;1265;22432;-53
2022/04/08 11:15:10;;;;;;;;;4.00;4.00;;;;;21.34;41.98;98593.30;110236;1264;19470;-54
2022/04/08 11:17:37;;;;;;;;;4.00;2.00;;;;;21.30;41.44;98599.62;110248;1264;20142;-52
2022/04/08 11:20:05;;;;;;;;;3.33;3.33;;;;;21.22;41.87;98601.17;110094;1265;18841;-51
2022/04/08 11:22:33;;;;;;;;;2.00;2.00;;;;;21.19;41.74;98618.52;110254;1265;19492;-52
2022/04/08 11:25:00;;;;;;;;;4.33;4.00;;;;;21.17;41.33;98624.96;110196;1264;18477;-52